Terminal Aerodrome Forecast
Issued by NWS

Home | Current Version | Previous Version | Text Only | Print | Product List | Glossary Off
Versions: 1 2 3 4 5 6 7 8 9 10 11 12 13 14 15 16

000
FTUS43 KMPX 201700
TAFAXN
TAF
KAXN 201720Z 2018/2118 30015G22KT P6SM SCT040
      TEMPO 2020/2022 2SM TSRA OVC030CB
     FM210300 32010KT P6SM SCT045 BKN100
     FM210600 32007KT P6SM SCT120
      TEMPO 2110/2114 BKN020=

USA.gov is the U.S. government's official web portal to all federal, state and local government web resources and services.